Time;durP1;ratioP1;P1;durP2;ratioP2;P2;SDS_P1;SDS_P2;PMS_P1;PMS_P2;Temp;Humidity;BMP_temperature;BMP_pressure;BME280_temperature;BME280_humidity;BME280_pressure;Samples;Min_cycle;Max_cycle;Signal;HPM_P1;HPM_P2
2023/03/25 00:01:16;;;;;;;2.87;1.53;;;;;;;7.20;100.00;99504.94;4871898;29;20538;-79
2023/03/25 00:03:49;;;;;;;2.57;1.80;;;;;;;7.13;100.00;99506.84;4871527;29;20132;-79
2023/03/25 00:06:16;;;;;;;3.00;1.50;;;;;;;7.13;100.00;99516.50;4886210;29;20507;-80
2023/03/25 00:08:43;;;;;;;2.73;1.50;;;;;;;7.09;100.00;99507.84;4858585;29;20060;-80
2023/03/25 00:11:09;;;;;;;1.80;1.40;;;;;;;7.09;100.00;99505.22;4860417;29;20079;-80
2023/03/25 00:13:36;;;;;;;3.03;1.80;;;;;;;7.12;100.00;99513.00;4888371;29;20094;-79
2023/03/25 00:16:03;;;;;;;2.30;1.60;;;;;;;7.06;100.00;99531.53;4878491;29;20042;-79
2023/03/25 00:18:34;;;;;;;2.23;1.70;;;;;;;7.04;100.00;99520.19;4870827;29;20499;-79
2023/03/25 00:21:01;;;;;;;2.80;1.90;;;;;;;7.03;100.00;99523.72;4857327;29;20045;-79
2023/03/25 00:23:29;;;;;;;2.53;1.80;;;;;;;7.00;100.00;99510.69;4827725;29;20518;-79
2023/03/25 00:26:00;;;;;;;4.20;2.40;;;;;;;7.00;100.00;99518.56;4843066;29;20053;-79
2023/03/25 00:28:29;;;;;;;3.60;2.00;;;;;;;6.98;100.00;99516.00;4859509;29;20084;-79
2023/03/25 00:31:14;;;;;;;3.73;2.57;;;;;;;7.02;100.00;99506.25;4868602;29;20097;-80
2023/03/25 00:33:41;;;;;;;4.87;3.23;;;;;;;7.11;100.00;99506.03;4881594;29;20370;-79
2023/03/25 00:36:12;;;;;;;2.30;1.73;;;;;;;7.13;100.00;99506.84;4825906;29;20061;-79
2023/03/25 00:38:40;;;;;;;2.43;1.90;;;;;;;7.14;100.00;99511.19;4855115;29;20095;-79
2023/03/25 00:41:12;;;;;;;2.60;1.73;;;;;;;7.14;100.00;99511.19;4827268;29;20053;-78
2023/03/25 00:43:39;;;;;;;3.00;2.50;;;;;;;7.18;100.00;99504.13;4841534;29;20049;-78
2023/03/25 00:46:06;;;;;;;3.50;2.13;;;;;;;7.08;100.00;99502.63;4821736;29;20050;-79
2023/03/25 00:48:32;;;;;;;3.83;2.70;;;;;;;7.05;100.00;99504.41;4853499;29;20541;-79
2023/03/25 00:51:06;;;;;;;3.47;2.37;;;;;;;7.04;100.00;99507.06;4857866;29;20539;-79
2023/03/25 00:53:34;;;;;;;5.45;2.65;;;;;;;7.03;100.00;99506.22;4836563;29;20140;-80
2023/03/25 00:56:01;;;;;;;3.37;2.20;;;;;;;7.05;100.00;99504.41;4842877;29;20056;-79
2023/03/25 00:58:28;;;;;;;3.53;2.70;;;;;;;7.13;100.00;99516.50;4857858;29;20511;-79
2023/03/25 01:00:56;;;;;;;3.73;2.30;;;;;;;7.10;100.00;99506.94;4842643;29;20045;-79
2023/03/25 01:03:29;;;;;;;4.13;2.23;;;;;;;7.03;100.00;99507.97;4867714;29;20041;-78
2023/03/25 01:05:56;;;;;;;3.70;2.30;;;;;;;6.97;100.00;99510.75;4859901;29;20049;-78
2023/03/25 01:08:24;;;;;;;5.77;3.47;;;;;;;6.96;100.00;99511.66;4873908;29;20492;-77
2023/03/25 01:10:52;;;;;;;3.30;2.67;;;;;;;7.02;100.00;99506.25;4841510;29;20515;-78
2023/03/25 01:13:21;;;;;;;3.83;2.63;;;;;;;6.95;100.00;99508.16;4846887;29;20070;-78
2023/03/25 01:15:48;;;;;;;3.63;2.40;;;;;;;6.88;100.00;99506.56;4846060;29;20046;-78
2023/03/25 01:18:15;;;;;;;2.93;2.30;;;;;;;6.85;100.00;99524.19;4844176;29;20045;-78
2023/03/25 01:20:42;;;;;;;3.80;2.47;;;;;;;6.80;100.00;99515.53;4842316;29;20054;-78
2023/03/25 01:23:10;;;;;;;3.27;2.30;;;;;;;6.78;100.00;99518.19;4870434;29;20057;-78
2023/03/25 01:25:36;;;;;;;3.20;1.97;;;;;;;6.74;100.00;99517.41;4857719;29;20053;-78
2023/03/25 01:28:04;;;;;;;2.33;2.13;;;;;;;6.78;100.00;99510.31;4873963;29;20438;-79
2023/03/25 01:30:31;;;;;;;5.00;2.17;;;;;;;6.71;100.00;99521.84;4842115;29;20133;-79
2023/03/25 01:32:59;;;;;;;4.07;1.90;;;;;;;6.73;100.00;99520.94;4889995;29;20054;-79
2023/03/25 01:35:25;;;;;;;3.87;2.20;;;;;;;6.76;100.00;99515.63;4844543;29;20411;-78
2023/03/25 01:37:53;;;;;;;4.13;2.37;;;;;;;6.77;100.00;99506.84;4843671;29;20052;-82
2023/03/25 01:40:23;;;;;;;4.50;2.30;;;;;;;6.76;100.00;99499.88;4878491;23;20471;-79
2023/03/25 01:42:50;;;;;;;3.13;2.00;;;;;;;6.78;100.00;99495.44;4892381;29;20149;-80
2023/03/25 01:45:25;;;;;;;3.40;2.37;;;;;;;6.75;100.00;99490.28;4866029;29;20037;-80
2023/03/25 01:48:11;;;;;;;4.87;2.00;;;;;;;6.77;100.00;99493.72;4841643;29;20579;-80
2023/03/25 01:50:41;;;;;;;4.63;2.13;;;;;;;6.68;100.00;99486.06;4887536;29;20041;-79
2023/03/25 01:53:09;;;;;;;3.20;2.20;;;;;;;6.69;100.00;99485.16;4871567;29;20064;-79
2023/03/25 01:55:37;;;;;;;2.93;2.17;;;;;;;6.65;100.00;99480.03;4882103;29;20041;-80
2023/03/25 01:58:09;;;;;;;3.20;1.80;;;;;;;6.63;100.00;99479.19;4863238;29;20045;-81
2023/03/25 02:00:39;;;;;;;2.70;2.00;;;;;;;6.60;100.00;99479.25;4864581;29;20526;-80
2023/03/25 02:03:08;;;;;;;3.83;1.90;;;;;;;6.55;100.00;99478.50;4864681;29;20518;-79
2023/03/25 02:05:50;;;;;;;4.00;2.17;;;;;;;6.40;100.00;99472.72;4849463;29;20388;-80
2023/03/25 02:08:18;;;;;;;4.13;1.90;;;;;;;6.46;100.00;99469.06;4851894;29;20078;-81
2023/03/25 02:10:45;;;;;;;3.10;1.73;;;;;;;6.54;100.00;99471.53;4852953;29;20045;-80
2023/03/25 02:13:16;;;;;;;3.93;2.47;;;;;;;6.44;100.00;99468.25;4847910;29;20054;-80
2023/03/25 02:16:05;;;;;;;2.30;1.70;;;;;;;6.41;100.00;99463.94;4846766;29;20420;-80
2023/03/25 02:19:09;;;;;;;2.90;1.90;;;;;;;6.30;100.00;99465.06;4863166;29;20048;-81
2023/03/25 02:21:56;;;;;;;2.50;2.00;;;;;;;6.28;100.00;99462.47;4890236;29;20050;-81
2023/03/25 02:25:04;;;;;;;2.60;1.90;;;;;;;6.18;100.00;99455.72;4877701;29;20049;-80
2023/03/25 02:27:40;;;;;;;3.67;2.15;;;;;;;6.21;100.00;99456.50;4870835;29;20041;-80
2023/03/25 02:30:12;;;;;;;3.60;1.60;;;;;;;6.10;100.00;99455.03;4861862;29;20068;-81
2023/03/25 02:32:58;;;;;;;2.60;1.80;;;;;;;6.10;100.00;99455.03;4829154;29;20079;-80
2023/03/25 02:35:42;;;;;;;3.43;1.87;;;;;;;6.08;100.00;99457.69;4857276;29;20045;-81
2023/03/25 02:38:25;;;;;;;3.83;2.07;;;;;;;6.16;100.00;99450.53;4848551;29;20049;-81
2023/03/25 02:41:24;;;;;;;2.47;1.90;;;;;;;6.18;100.00;99448.72;4835905;29;20418;-80
2023/03/25 02:44:10;;;;;;;3.53;1.77;;;;;;;6.21;100.00;99440.78;4841629;29;20154;-81
2023/03/25 02:46:40;;;;;;;3.83;2.10;;;;;;;6.22;100.00;99433.75;4845173;29;20385;-81
2023/03/25 02:49:10;;;;;;;4.10;1.83;;;;;;;6.27;100.00;99437.16;4829166;29;20053;-81
2023/03/25 02:51:49;;;;;;;3.37;1.60;;;;;;;6.27;100.00;99431.91;4836574;29;20484;-81
2023/03/25 02:54:20;;;;;;;5.67;2.00;;;;;;;6.28;100.00;99438.88;4851159;29;20045;-81
2023/03/25 02:56:48;;;;;;;4.53;2.50;;;;;;;6.48;100.00;99438.44;4857635;29;20042;-81
2023/03/25 02:59:18;;;;;;;3.97;2.30;;;;;;;6.52;100.00;99440.06;4855205;29;20476;-81
2023/03/25 03:01:49;;;;;;;3.43;1.70;;;;;;;6.65;100.00;99438.03;4873870;29;20044;-81
2023/03/25 03:04:16;;;;;;;3.30;1.87;;;;;;;6.65;100.00;99432.78;4867176;29;20407;-81
2023/03/25 03:06:43;;;;;;;3.90;1.93;;;;;;;6.69;100.00;99432.66;4847800;29;20038;-80
2023/03/25 03:09:21;;;;;;;4.57;2.00;;;;;;;6.82;100.00;99429.75;4854122;29;20168;-81
2023/03/25 03:11:55;;;;;;;3.83;1.73;;;;;;;6.85;100.00;99420.03;4861610;29;20448;-81
2023/03/25 03:14:41;;;;;;;3.55;2.25;;;;;;;6.93;100.00;99417.22;4865538;29;20041;-80
2023/03/25 03:17:28;;;;;;;2.07;1.67;;;;;;;6.89;100.00;99418.19;5009457;23;20075;-81
2023/03/25 03:20:18;;;;;;;3.30;2.27;;;;;;;6.96;100.00;99423.22;4889037;29;20044;-81
2023/03/25 03:22:55;;;;;;;2.40;1.60;;;;;;;7.06;100.00;99410.72;4887506;29;20063;-82
2023/03/25 03:25:29;;;;;;;2.10;1.53;;;;;;;7.10;100.00;99414.16;4890592;29;20036;-81
2023/03/25 03:28:26;;;;;;;2.83;1.57;;;;;;;7.14;100.00;99421.03;4871875;29;20053;-80
2023/03/25 03:31:05;;;;;;;3.70;1.63;;;;;;;7.29;100.00;99426.75;4878751;29;20044;-81
2023/03/25 03:33:37;;;;;;;4.80;1.73;;;;;;;7.33;100.00;99423.16;4866227;29;20509;-80
2023/03/25 03:36:07;;;;;;;5.63;2.13;;;;;;;7.37;100.00;99418.66;4898454;29;20043;-79
2023/03/25 03:38:40;;;;;;;3.47;1.87;;;;;;;7.38;100.00;99427.41;4899310;29;20040;-80
2023/03/25 03:41:10;;;;;;;2.60;1.20;;;;;;;7.41;100.00;99430.81;4891928;29;20166;-80
2023/03/25 03:44:01;;;;;;;2.77;1.80;;;;;;;7.51;100.00;99436.69;4860822;29;20049;-79
2023/03/25 03:46:50;;;;;;;3.17;1.70;;;;;;;7.51;100.00;99431.44;4890320;29;20061;-80
2023/03/25 03:49:20;;;;;;;3.67;1.40;;;;;;;7.49;100.00;99433.25;4880964;29;20074;-79
2023/03/25 03:52:15;;;;;;;4.23;1.80;;;;;;;7.44;100.00;99435.13;4884520;29;20075;-80
2023/03/25 03:55:05;;;;;;;2.43;1.40;;;;;;;7.54;100.00;99424.31;4874937;29;20144;-79
2023/03/25 03:57:37;;;;;;;5.03;1.63;;;;;;;7.49;100.00;99425.38;4875983;29;20040;-79
2023/03/25 04:00:08;;;;;;;4.00;2.10;;;;;;;7.46;100.00;99426.28;4881260;29;20045;-80
2023/03/25 04:02:49;;;;;;;3.30;1.50;;;;;;;7.39;100.00;99429.13;4873843;29;20045;-82
2023/03/25 04:05:20;;;;;;;3.50;2.33;;;;;;;7.36;100.00;99429.22;4878457;29;20061;-81
2023/03/25 04:07:59;;;;;;;3.53;1.50;;;;;;;7.39;100.00;99440.50;4885694;29;20040;-80
2023/03/25 04:10:33;;;;;;;4.00;1.60;;;;;;;7.49;100.00;99428.00;4867864;29;20044;-82
2023/03/25 04:13:03;;;;;;;3.93;2.00;;;;;;;7.41;100.00;99424.72;4886998;29;20548;-80
2023/03/25 04:15:30;;;;;;;3.47;2.07;;;;;;;7.42;100.00;99415.91;4887687;29;20061;-80
2023/03/25 04:17:56;;;;;;;3.73;1.83;;;;;;;7.41;100.00;99416.81;4867118;29;20053;-79
2023/03/25 04:20:24;;;;;;;3.33;1.80;;;;;;;7.32;100.00;99413.53;4884550;29;20059;-82
2023/03/25 04:22:51;;;;;;;2.87;1.53;;;;;;;7.40;100.00;99413.34;4876050;29;20044;-81
2023/03/25 04:25:20;;;;;;;2.13;1.40;;;;;;;7.33;100.00;99412.63;4879550;29;20041;-80
2023/03/25 04:27:52;;;;;;;3.20;1.60;;;;;;;7.30;100.00;99410.06;4886971;29;20035;-81
2023/03/25 04:30:20;;;;;;;3.63;1.60;;;;;;;7.29;100.00;99412.75;4878923;29;20049;-81
2023/03/25 04:32:47;;;;;;;3.23;1.50;;;;;;;7.30;100.00;99417.09;4885749;29;20041;-81
2023/03/25 04:35:15;;;;;;;3.40;1.67;;;;;;;7.26;100.00;99415.47;4880173;29;20052;-81
2023/03/25 04:37:44;;;;;;;3.23;1.50;;;;;;;7.29;100.00;99418.88;4885313;29;20044;-81
2023/03/25 04:40:18;;;;;;;4.27;1.83;;;;;;;7.28;100.00;99419.78;4889637;29;20044;-80
2023/03/25 04:42:45;;;;;;;5.97;1.90;;;;;;;7.23;100.00;99415.53;4886067;29;20056;-80
2023/03/25 04:45:15;;;;;;;3.50;1.50;;;;;;;7.25;100.00;99419.88;4887398;29;20048;-81
2023/03/25 04:47:45;;;;;;;6.30;2.40;;;;;;;7.22;100.00;99412.03;4861051;29;20045;-81
2023/03/25 04:50:21;;;;;;;3.90;1.70;;;;;;;7.26;100.00;99416.31;4884660;29;20075;-81
2023/03/25 04:52:49;;;;;;;2.87;1.60;;;;;;;7.18;100.00;99414.81;4856710;29;20041;-81
2023/03/25 04:55:19;;;;;;;4.43;1.57;;;;;;;7.27;100.00;99419.81;4866549;29;20052;-81
2023/03/25 04:57:47;;;;;;;2.87;1.63;;;;;;;7.24;100.00;99412.88;4863483;29;20043;-81
2023/03/25 05:00:16;;;;;;;4.37;1.53;;;;;;;7.24;100.00;99422.53;4895996;29;20041;-81
2023/03/25 05:02:48;;;;;;;3.53;1.90;;;;;;;7.28;100.00;99411.88;4881717;29;20044;-80
2023/03/25 05:05:20;;;;;;;2.97;1.67;;;;;;;7.28;100.00;99411.88;4880233;29;20078;-80
2023/03/25 05:07:56;;;;;;;2.60;1.60;;;;;;;7.18;100.00;99412.19;4886491;29;20043;-81
2023/03/25 05:10:25;;;;;;;3.57;1.67;;;;;;;7.15;100.00;99413.13;4878264;29;20059;-81
2023/03/25 05:12:59;;;;;;;3.83;1.50;;;;;;;7.05;100.00;99401.97;4875731;29;20593;-81
2023/03/25 05:15:25;;;;;;;2.70;1.67;;;;;;;7.00;100.00;99413.53;4889599;29;20057;-81
2023/03/25 05:17:52;;;;;;;5.00;1.50;;;;;;;7.03;100.00;99397.69;4894716;29;20050;-81
2023/03/25 05:20:21;;;;;;;4.70;2.10;;;;;;;7.06;100.00;99410.72;4874554;29;20045;-81
2023/03/25 05:22:48;;;;;;;3.47;2.00;;;;;;;7.15;100.00;99407.03;4889776;29;20403;-81
2023/03/25 05:25:17;;;;;;;3.33;1.77;;;;;;;7.18;100.00;99407.78;4896388;29;20048;-80
2023/03/25 05:27:45;;;;;;;2.70;1.77;;;;;;;7.09;100.00;99409.81;4894203;29;20100;-81
2023/03/25 05:30:11;;;;;;;2.23;1.50;;;;;;;7.18;100.00;99413.03;4871449;29;20057;-81
2023/03/25 05:32:39;;;;;;;3.07;1.60;;;;;;;7.14;100.00;99402.66;4885687;29;20120;-82
2023/03/25 05:35:07;;;;;;;2.37;1.70;;;;;;;7.12;100.00;99407.94;4874153;29;20073;-81
2023/03/25 05:37:34;;;;;;;4.67;1.90;;;;;;;7.11;100.00;99411.47;4886004;29;20037;-81
2023/03/25 05:40:01;;;;;;;6.17;1.60;;;;;;;7.10;100.00;99408.91;4883555;29;20048;-80
2023/03/25 05:42:27;;;;;;;2.97;1.67;;;;;;;7.25;100.00;99406.72;4886259;29;20040;-79
2023/03/25 05:44:54;;;;;;;3.47;1.60;;;;;;;7.27;100.00;99409.31;4882693;29;20060;-79
2023/03/25 05:47:23;;;;;;;3.23;1.90;;;;;;;7.34;100.00;99403.00;4884416;29;20041;-80
2023/03/25 05:49:51;;;;;;;5.93;1.67;;;;;;;7.31;100.00;99410.94;4880493;29;20068;-79
2023/03/25 05:52:18;;;;;;;3.07;2.13;;;;;;;7.30;100.00;99412.69;4875505;29;20037;-79
2023/03/25 05:54:49;;;;;;;3.03;1.87;;;;;;;7.38;100.00;99409.88;4885363;29;20040;-80
2023/03/25 05:57:16;;;;;;;3.33;1.77;;;;;;;7.31;100.00;99411.81;4887475;29;20482;-80
2023/03/25 05:59:42;;;;;;;2.87;1.90;;;;;;;7.36;100.00;99410.81;4895088;29;20052;-80
2023/03/25 06:02:14;;;;;;;3.97;1.70;;;;;;;7.39;100.00;99414.22;4879290;29;20067;-80
2023/03/25 06:04:41;;;;;;;4.13;2.07;;;;;;;7.37;100.00;99416.03;4885952;29;20093;-80
2023/03/25 06:07:13;;;;;;;2.20;1.70;;;;;;;7.31;100.00;99417.06;4853975;29;20071;-80
2023/03/25 06:09:44;;;;;;;6.47;2.13;;;;;;;7.41;100.00;99419.44;4884317;29;20040;-80
2023/03/25 06:12:16;;;;;;;2.60;1.70;;;;;;;7.46;100.00;99423.66;4875367;29;20414;-80
2023/03/25 06:14:44;;;;;;;3.83;1.97;;;;;;;7.49;100.00;99420.97;4878397;29;20048;-80
2023/03/25 06:17:12;;;;;;;5.80;2.13;;;;;;;7.51;100.00;99421.78;4822425;29;1045839;-80
2023/03/25 06:19:39;;;;;;;2.97;1.47;;;;;;;7.45;100.00;99426.34;4877922;29;20052;-80
2023/03/25 06:22:10;;;;;;;6.07;1.57;;;;;;;7.67;100.00;99430.09;4872094;29;20052;-80
2023/03/25 06:24:40;;;;;;;5.37;1.80;;;;;;;7.84;100.00;99424.34;4893065;29;20051;-78
2023/03/25 06:27:11;;;;;;;3.40;1.90;;;;;;;7.94;100.00;99425.81;4894040;29;20044;-80
2023/03/25 06:29:40;;;;;;;2.60;1.60;;;;;;;8.02;100.00;99429.06;4890655;29;20096;-78
2023/03/25 06:32:07;;;;;;;4.23;1.90;;;;;;;8.05;100.00;99439.50;4888102;29;20604;-79
2023/03/25 06:34:34;;;;;;;3.70;1.57;;;;;;;7.96;100.00;99439.75;4885830;29;20513;-80
2023/03/25 06:37:01;;;;;;;3.10;1.73;;;;;;;7.95;100.00;99440.66;4898531;29;20072;-80
2023/03/25 06:39:32;;;;;;;3.63;1.80;;;;;;;7.95;100.00;99452.97;4890981;29;20269;-80
2023/03/25 06:41:59;;;;;;;4.50;1.77;;;;;;;8.03;100.00;99443.09;4885150;29;20037;-78
2023/03/25 06:44:26;;;;;;;3.63;2.10;;;;;;;8.07;100.00;99453.47;4886928;29;20048;-79
2023/03/25 06:46:53;;;;;;;3.67;2.00;;;;;;;8.10;100.00;99449.88;4891404;29;20047;-79
2023/03/25 06:49:20;;;;;;;4.80;2.70;;;;;;;8.07;100.00;99452.59;4877710;29;20067;-79
2023/03/25 06:51:47;;;;;;;3.20;1.83;;;;;;;8.12;100.00;99450.69;4858876;29;20076;-80
2023/03/25 06:54:14;;;;;;;3.57;2.43;;;;;;;8.09;100.00;99451.66;4881114;29;20396;-80
2023/03/25 06:56:41;;;;;;;4.80;2.30;;;;;;;8.18;100.00;99446.13;4885667;29;20036;-80
2023/03/25 06:59:07;;;;;;;2.50;2.07;;;;;;;8.09;100.00;99450.81;4868103;29;20041;-79
2023/03/25 07:01:34;;;;;;;4.43;2.60;;;;;;;8.10;100.00;99436.75;4867858;29;20060;-79
2023/03/25 07:04:01;;;;;;;5.03;1.80;;;;;;;8.21;100.00;99444.28;4882254;29;20406;-79
2023/03/25 07:06:28;;;;;;;4.93;2.20;;;;;;;8.25;100.00;99441.53;4879571;29;20596;-78
2023/03/25 07:08:55;;;;;;;4.13;1.80;;;;;;;8.21;100.00;99445.16;4874793;29;20627;-80
2023/03/25 07:11:28;;;;;;;3.73;1.73;;;;;;;8.39;100.00;99441.13;4889407;29;20055;-80
2023/03/25 07:13:55;;;;;;;5.77;1.87;;;;;;;8.56;100.00;99443.22;4877257;29;20075;-79
2023/03/25 07:16:22;;;;;;;5.17;2.37;;;;;;;8.91;100.00;99436.81;4885394;29;20494;-79
2023/03/25 07:18:49;;;;;;;2.53;1.67;;;;;;;9.23;100.00;99431.31;4882483;29;20045;-80
2023/03/25 07:21:17;;;;;;;5.00;2.30;;;;;;;9.43;100.00;99432.44;4871784;29;20051;-80
2023/03/25 07:23:44;;;;;;;2.13;1.60;;;;;;;9.50;100.00;99431.25;4886171;29;20048;-80
2023/03/25 07:26:12;;;;;;;2.53;1.63;;;;;;;9.55;100.00;99435.47;4865905;29;20051;-80
2023/03/25 07:28:39;;;;;;;3.75;1.73;;;;;;;9.55;100.00;99435.47;4887683;29;20057;-79
2023/03/25 07:31:07;;;;;;;4.78;2.15;;;;;;;9.53;100.00;99433.81;4882523;29;20048;-81
2023/03/25 07:33:35;;;;;;;4.38;2.13;;;;;;;9.49;100.00;99440.09;4887687;29;20037;-80
2023/03/25 07:36:03;;;;;;;3.30;1.50;;;;;;;9.57;100.00;99433.63;4865044;29;20048;-80
2023/03/25 07:38:30;;;;;;;3.03;1.70;;;;;;;9.74;100.00;99432.16;4885099;29;20063;-81
2023/03/25 07:40:57;;;;;;;3.47;1.50;;;;;;;9.91;100.00;99424.47;4886830;29;20041;-79
2023/03/25 07:43:23;;;;;;;2.53;1.63;;;;;;;10.01;100.00;99430.31;4880522;29;20055;-78
2023/03/25 07:45:50;;;;;;;3.22;1.83;;;;;;;10.20;100.00;99433.09;4871022;29;20045;-79
2023/03/25 07:48:16;;;;;;;3.42;1.40;;;;;;;10.05;100.00;99429.25;4874528;29;20109;-80
2023/03/25 07:50:44;;;;;;;3.70;1.83;;;;;;;9.91;100.00;99427.13;4881916;29;20044;-79
2023/03/25 07:53:11;;;;;;;4.03;1.83;;;;;;;9.99;100.00;99434.75;4881756;29;20051;-80
2023/03/25 07:55:38;;;;;;;5.30;1.80;;;;;;;10.07;100.00;99425.63;4887782;29;20041;-80
2023/03/25 07:58:05;;;;;;;2.20;1.38;;;;;;;10.13;100.00;99416.63;4882534;29;20037;-81
2023/03/25 08:00:31;;;;;;;2.78;1.95;;;;;;;10.32;100.00;99419.44;4871926;29;20125;-80
2023/03/25 08:02:58;;;;;;;2.78;1.90;;;;;;;10.37;100.00;99418.34;4883559;29;20724;-79
2023/03/25 08:05:25;;;;;;;3.33;1.75;;;;;;;10.39;100.00;99420.91;4881002;29;20045;-80
2023/03/25 08:07:51;;;;;;;3.42;2.15;;;;;;;10.39;100.00;99428.84;4887295;29;20043;-79
2023/03/25 08:10:18;;;;;;;2.50;1.65;;;;;;;10.36;100.00;99428.97;4889348;29;20040;-79
2023/03/25 08:12:45;;;;;;;3.00;1.55;;;;;;;10.40;100.00;99420.00;4880565;29;20073;-78
2023/03/25 08:15:12;;;;;;;1.63;1.45;;;;;;;10.39;100.00;99424.41;4884282;29;20052;-79
2023/03/25 08:17:39;;;;;;;3.33;1.70;;;;;;;10.46;100.00;99432.97;4890433;29;20037;-81
2023/03/25 08:20:06;;;;;;;6.13;2.03;;;;;;;10.62;100.00;99428.78;4875393;29;20048;-79
2023/03/25 08:22:33;;;;;;;2.92;1.50;;;;;;;10.70;95.50;99426.69;4887729;29;20037;-80
2023/03/25 08:25:00;;;;;;;3.83;1.58;;;;;;;10.90;98.88;99428.50;4890195;29;20060;-80
2023/03/25 08:27:26;;;;;;;3.47;1.80;;;;;;;11.04;92.26;99430.59;4885960;29;20037;-79
2023/03/25 08:29:56;;;;;;;3.25;1.75;;;;;;;10.96;91.67;99428.28;4886077;29;20053;-79
2023/03/25 08:32:23;;;;;;;4.05;1.70;;;;;;;11.12;93.34;99425.84;4870042;29;20041;-80
2023/03/25 08:34:50;;;;;;;2.25;1.40;;;;;;;11.28;91.98;99426.91;4888999;29;20128;-80
2023/03/25 08:37:17;;;;;;;5.55;1.70;;;;;;;11.39;90.78;99428.22;4896162;29;20081;-80
2023/03/25 08:39:44;;;;;;;3.17;1.42;;;;;;;11.30;86.71;99418.91;4872108;29;20105;-80
2023/03/25 08:42:12;;;;;;;1.58;1.25;;;;;;;11.30;89.22;99434.78;4888788;29;20723;-79
2023/03/25 08:44:39;;;;;;;1.90;1.30;;;;;;;11.22;91.46;99424.53;4889676;29;20130;-81
2023/03/25 08:47:06;;;;;;;3.58;1.48;;;;;;;11.24;88.33;99430.59;4875067;29;20045;-81
2023/03/25 08:49:32;;;;;;;3.15;1.30;;;;;;;11.13;93.27;99418.78;4886963;29;20048;-79
2023/03/25 08:52:00;;;;;;;2.63;1.30;;;;;;;10.97;90.98;99421.19;4880338;29;20387;-80
2023/03/25 08:54:28;;;;;;;3.00;1.45;;;;;;;10.87;93.05;99423.38;4899086;29;20065;-79
2023/03/25 08:56:54;;;;;;;2.00;1.15;;;;;;;10.97;92.97;99426.47;4892582;29;20047;-79
2023/03/25 08:59:21;;;;;;;3.00;1.80;;;;;;;10.97;92.24;99434.41;4880768;29;20041;-81
2023/03/25 09:01:48;;;;;;;2.30;1.33;;;;;;;10.76;87.25;99422.06;4868400;29;20813;-80
2023/03/25 09:04:15;;;;;;;2.72;1.25;;;;;;;10.72;89.50;99442.47;4852131;29;20501;-81
2023/03/25 09:06:41;;;;;;;3.92;1.30;;;;;;;10.63;87.35;99421.72;4869552;29;20037;-81
2023/03/25 09:09:28;;;;;;;4.55;1.40;;;;;;;10.50;86.13;99431.06;4881008;29;20459;-79
2023/03/25 09:11:55;;;;;;;4.25;1.15;;;;;;;10.66;86.52;99442.72;4879210;29;20052;-80
2023/03/25 09:14:22;;;;;;;3.58;1.70;;;;;;;10.77;81.49;99442.31;4859736;29;20052;-82
2023/03/25 09:16:48;;;;;;;2.17;1.27;;;;;;;10.95;84.68;99436.25;4867208;29;20048;-80
2023/03/25 09:19:15;;;;;;;1.75;1.15;;;;;;;11.22;79.11;99428.94;4868811;29;20136;-82
2023/03/25 09:21:42;;;;;;;3.60;1.30;;;;;;;11.37;81.34;99430.94;4874430;29;20045;-81
2023/03/25 09:24:08;;;;;;;2.17;1.30;;;;;;;11.43;78.68;99438.59;4874271;29;20044;-81
2023/03/25 09:26:36;;;;;;;3.22;1.92;;;;;;;11.48;78.14;99441.91;4881003;29;20045;-82
2023/03/25 09:29:02;;;;;;;3.70;1.50;;;;;;;11.52;75.81;99442.66;4869925;29;20029;-81
2023/03/25 09:31:29;;;;;;;1.45;1.00;;;;;;;11.53;78.75;99444.38;4852674;29;20041;-80
2023/03/25 09:33:56;;;;;;;2.70;1.10;;;;;;;11.52;76.97;99451.44;4883040;29;20045;-83
2023/03/25 09:36:22;;;;;;;4.13;1.60;;;;;;;11.40;76.33;99446.66;4878094;29;20049;-82
2023/03/25 09:38:49;;;;;;;2.65;1.35;;;;;;;11.44;77.37;99447.41;4879192;29;20068;-81
2023/03/25 09:41:32;;;;;;;2.78;1.45;;;;;;;11.44;77.96;99450.06;4885193;29;20044;-81
2023/03/25 09:44:06;;;;;;;2.30;1.10;;;;;;;11.44;77.37;99452.69;4868999;29;20037;-82
2023/03/25 09:46:32;;;;;;;2.27;1.60;;;;;;;11.51;79.49;99454.13;4867559;29;20505;-80
2023/03/25 09:48:59;;;;;;;2.47;1.38;;;;;;;11.53;75.72;99455.81;4884068;29;20147;-82
2023/03/25 09:51:32;;;;;;;3.22;1.45;;;;;;;11.51;76.72;99448.84;4852686;29;20056;-82
2023/03/25 09:54:24;;;;;;;3.15;1.35;;;;;;;11.63;80.18;99450.97;4863352;29;20049;-82
2023/03/25 09:56:54;;;;;;;1.73;1.20;;;;;;;11.74;78.22;99451.34;4875740;29;20695;-82
2023/03/25 09:59:22;;;;;;;1.10;0.82;;;;;;;11.71;76.31;99442.69;4855044;29;20129;-83
2023/03/25 10:02:05;;;;;;;2.65;1.20;;;;;;;11.43;75.71;99443.88;4873496;29;20132;-82
2023/03/25 10:04:38;;;;;;;3.05;1.50;;;;;;;11.34;75.91;99456.63;4881565;29;20045;-81
2023/03/25 10:07:46;;;;;;;3.22;2.15;;;;;;;11.30;77.97;99448.00;4884789;29;20253;-80
2023/03/25 10:10:22;;;;;;;3.30;1.20;;;;;;;11.26;80.06;99456.97;4898290;29;20044;-81
2023/03/25 10:13:17;;;;;;;1.10;0.90;;;;;;;11.20;79.48;99455.47;4886840;29;20044;-80
2023/03/25 10:16:06;;;;;;;1.52;1.10;;;;;;;11.26;78.96;99449.88;4850838;29;20045;-79
2023/03/25 10:18:39;;;;;;;2.95;1.00;;;;;;;11.31;79.32;99451.50;4892128;29;20049;-81
2023/03/25 10:21:21;;;;;;;1.45;1.10;;;;;;;11.32;79.86;99447.91;4887069;29;20053;-79
2023/03/25 10:24:02;;;;;;;2.70;1.35;;;;;;;11.32;81.23;99443.50;4882660;29;20079;-79
2023/03/25 10:26:43;;;;;;;3.28;1.30;;;;;;;11.35;82.60;99442.50;4871730;29;20051;-81
2023/03/25 10:29:13;;;;;;;2.17;1.50;;;;;;;11.42;80.54;99452.75;4880934;29;20045;-80
2023/03/25 10:31:51;;;;;;;1.98;1.55;;;;;;;11.47;79.93;99441.97;4871283;29;20045;-78
2023/03/25 10:34:24;;;;;;;2.83;2.00;;;;;;;11.55;80.14;99442.50;4898091;29;20041;-80
2023/03/25 10:36:56;;;;;;;3.70;1.85;;;;;;;11.69;79.32;99433.97;4891977;29;20037;-80
2023/03/25 10:39:32;;;;;;;2.03;1.70;;;;;;;12.15;81.12;99440.69;4860499;29;20557;-80
2023/03/25 10:42:03;;;;;;;2.30;1.42;;;;;;;12.53;78.52;99438.06;4869481;29;20431;-81
2023/03/25 10:44:30;;;;;;;2.63;1.50;;;;;;;12.53;69.34;99428.31;4878558;29;20384;-79
2023/03/25 10:47:03;;;;;;;3.10;1.70;;;;;;;12.56;72.24;99422.84;4866555;29;20045;-81
2023/03/25 10:49:32;;;;;;;2.17;1.40;;;;;;;12.66;72.65;99410.88;4878089;29;20052;-79
2023/03/25 10:52:00;;;;;;;2.67;1.35;;;;;;;12.55;68.31;99410.53;4887895;29;20045;-78
2023/03/25 10:54:37;;;;;;;2.00;1.70;;;;;;;12.78;70.25;99414.72;4883126;29;20037;-80
2023/03/25 10:57:14;;;;;;;3.30;1.60;;;;;;;12.60;69.91;99415.59;4881012;29;20041;-81
2023/03/25 10:59:46;;;;;;;2.58;1.38;;;;;;;12.39;71.30;99428.09;4890404;29;20065;-80
2023/03/25 11:02:16;;;;;;;2.55;1.50;;;;;;;12.06;71.49;99427.88;4894680;29;20406;-80
2023/03/25 11:04:43;;;;;;;1.77;1.25;;;;;;;12.06;73.00;99427.88;4886192;29;20047;-78
2023/03/25 11:07:37;;;;;;;4.63;1.90;;;;;;;12.57;76.88;99426.34;4892874;29;20100;-80
2023/03/25 11:10:20;;;;;;;2.80;1.60;;;;;;;13.09;76.24;99423.78;4872885;29;20065;-80
2023/03/25 11:12:50;;;;;;;10.18;7.22;;;;;;;13.59;72.95;99421.22;4893534;29;20141;-78
2023/03/25 11:15:43;;;;;;;5.03;4.43;;;;;;;13.81;69.30;99412.97;4863442;29;20448;-79
2023/03/25 11:18:20;;;;;;;2.63;1.98;;;;;;;14.12;70.27;99413.97;4887136;29;20057;-81
2023/03/25 11:20:49;;;;;;;3.30;2.42;;;;;;;14.20;67.18;99417.06;4875994;29;20021;-79
2023/03/25 11:23:27;;;;;;;2.58;1.40;;;;;;;14.19;65.27;99407.38;4890391;29;20125;-79
2023/03/25 11:25:54;;;;;;;2.38;1.58;;;;;;;14.28;67.37;99407.72;4885491;29;20057;-79
2023/03/25 11:28:39;;;;;;;1.52;1.40;;;;;;;14.28;66.19;99407.72;4871430;29;20037;-79
2023/03/25 11:31:08;;;;;;;3.50;2.40;;;;;;;14.13;64.91;99397.97;4855807;29;20049;-79
2023/03/25 11:33:36;;;;;;;3.10;2.70;;;;;;;13.92;67.67;99384.03;4885544;29;20063;-79
2023/03/25 11:36:30;;;;;;;1.40;1.15;;;;;;;13.69;68.20;99381.78;4862081;29;20084;-79
2023/03/25 11:39:05;;;;;;;2.35;1.30;;;;;;;13.35;68.38;99380.91;4885259;29;20109;-80
2023/03/25 11:41:36;;;;;;;1.77;1.23;;;;;;;13.26;71.39;99381.38;4867829;29;20037;-79
2023/03/25 11:44:04;;;;;;;2.65;1.48;;;;;;;12.95;69.76;99380.28;4887787;29;20059;-79
2023/03/25 11:46:33;;;;;;;1.73;1.25;;;;;;;13.10;70.75;99377.75;4886677;29;20052;-78
2023/03/25 11:49:10;;;;;;;2.85;1.75;;;;;;;12.91;68.23;99375.19;4870864;29;20490;-78
2023/03/25 11:51:37;;;;;;;3.10;1.13;;;;;;;12.65;70.35;99369.41;4888713;29;20040;-78
2023/03/25 11:54:11;;;;;;;2.88;1.50;;;;;;;12.60;74.49;99383.81;4857908;29;20075;-79